createdAt,value
2022-12-25T00:02:10.634Z,101304.16
2022-12-25T00:04:40.659Z,101294.94
2022-12-25T00:07:08.895Z,101257.97
2022-12-25T00:09:35.818Z,101264.63
2022-12-25T00:12:04.970Z,101267.91
2022-12-25T00:14:36.608Z,101408.69
2022-12-25T00:17:07.976Z,101353.59
2022-12-25T00:19:34.488Z,101439.09
2022-12-25T00:22:07.928Z,101440.88
2022-12-25T00:24:36.147Z,101415.34
2022-12-25T00:27:03.136Z,101361.50
2022-12-25T00:29:30.932Z,101253.19
2022-12-25T00:32:04.785Z,101197.09
2022-12-25T00:34:31.917Z,101444.06
2022-12-25T00:37:01.616Z,101386.00
2022-12-25T00:39:30.584Z,101352.72
2022-12-25T00:42:02.237Z,101354.03
2022-12-25T00:44:31.972Z,101334.16
2022-12-25T00:47:01.633Z,101205.16
2022-12-25T00:49:29.999Z,101234.28
2022-12-25T00:52:00.530Z,101228.50
2022-12-25T00:54:27.519Z,101430.94
2022-12-25T00:56:54.425Z,101244.09
2022-12-25T00:59:33.984Z,101296.69
2022-12-25T01:02:01.662Z,101290.78
2022-12-25T01:04:30.943Z,101423.41
2022-12-25T01:06:59.933Z,101433.69
2022-12-25T01:09:26.776Z,101443.38
2022-12-25T01:11:53.568Z,101378.28
2022-12-25T01:14:20.507Z,101300.31
2022-12-25T01:16:48.892Z,101297.78
2022-12-25T01:19:19.129Z,101430.22
2022-12-25T01:21:46.519Z,101246.94
2022-12-25T01:24:18.432Z,101420.19
2022-12-25T01:26:56.354Z,101397.72
2022-12-25T01:29:32.692Z,101309.25
2022-12-25T01:32:06.592Z,101263.44
2022-12-25T01:34:38.916Z,101483.34
2022-12-25T01:37:05.811Z,101281.09
2022-12-25T01:39:34.073Z,101472.72
2022-12-25T01:42:06.842Z,101407.72
2022-12-25T01:45:21.247Z,101318.34
2022-12-25T01:47:50.813Z,101341.28
2022-12-25T01:50:20.653Z,101254.72
2022-12-25T01:52:50.374Z,101317.59
2022-12-25T01:55:25.446Z,101427.22
2022-12-25T01:57:56.090Z,101287.66
2022-12-25T02:00:25.523Z,101240.34
2022-12-25T02:02:55.620Z,101454.31
2022-12-25T02:05:27.212Z,101475.75
2022-12-25T02:08:07.672Z,101303.81
2022-12-25T02:10:38.189Z,101322.59
2022-12-25T02:13:06.370Z,101258.13
2022-12-25T02:15:46.506Z,101455.31
2022-12-25T02:18:30.431Z,101365.09
2022-12-25T02:21:35.997Z,101258.06
2022-12-25T02:24:33.693Z,101285.66
2022-12-25T02:27:16.923Z,101461.28
2022-12-25T02:29:56.627Z,101485.13
2022-12-25T02:32:43.551Z,101279.50
2022-12-25T02:38:41.403Z,101430.06
2022-12-25T02:47:36.003Z,101360.69
2022-12-25T02:53:03.574Z,101388.53
2022-12-25T02:55:49.595Z,101309.00
2022-12-25T02:58:28.674Z,101260.16
2022-12-25T03:01:04.150Z,101457.56
2022-12-25T03:03:44.205Z,101408.09
2022-12-25T03:06:20.528Z,101411.25
2022-12-25T03:08:55.533Z,101397.06
2022-12-25T03:11:33.903Z,101359.56
2022-12-25T03:14:15.329Z,101432.25
2022-12-25T03:16:51.167Z,101377.44
2022-12-25T03:19:28.686Z,101239.16
2022-12-25T03:21:56.400Z,101209.63
2022-12-25T03:24:27.512Z,101430.97
2022-12-25T03:26:56.729Z,101200.72
2022-12-25T03:29:32.685Z,101205.63
2022-12-25T03:32:24.344Z,101344.31
2022-12-25T03:37:56.229Z,101362.59
2022-12-25T03:40:39.837Z,101352.88
2022-12-25T03:43:22.389Z,101282.03
2022-12-25T03:46:03.922Z,101180.06
2022-12-25T03:48:49.208Z,101386.28
2022-12-25T03:51:30.097Z,101192.69
2022-12-25T03:54:13.435Z,101180.41
2022-12-25T03:56:50.989Z,101163.25
2022-12-25T03:59:31.505Z,101168.97
2022-12-25T04:01:58.740Z,101188.00
2022-12-25T04:07:29.669Z,101211.94
2022-12-25T04:10:02.526Z,101376.25
2022-12-25T04:12:44.232Z,101256.66
2022-12-25T04:15:13.570Z,101385.75
2022-12-25T04:17:47.980Z,101163.78
2022-12-25T04:20:16.913Z,101314.75
2022-12-25T04:23:02.476Z,101357.97
2022-12-25T04:25:39.401Z,101362.06
2022-12-25T04:28:09.136Z,101319.50
2022-12-25T04:30:38.908Z,101317.03
2022-12-25T04:33:11.661Z,101346.63
2022-12-25T04:35:55.135Z,101341.56
2022-12-25T04:38:23.528Z,101314.72
2022-12-25T04:40:58.496Z,101329.31
2022-12-25T04:43:30.392Z,101225.75
2022-12-25T04:46:02.257Z,101184.44
2022-12-25T04:48:37.663Z,101375.31
2022-12-25T04:51:24.978Z,101382.34
2022-12-25T04:54:14.271Z,101317.13
2022-12-25T04:56:45.522Z,101222.72
2022-12-25T04:59:28.024Z,101200.28
2022-12-25T05:02:13.773Z,101227.38
2022-12-25T05:04:59.577Z,101336.44
2022-12-25T05:07:42.286Z,101390.44
2022-12-25T05:10:41.420Z,101216.09
2022-12-25T05:13:20.807Z,101269.78
2022-12-25T05:16:10.288Z,101269.91
2022-12-25T05:18:40.133Z,101409.53
2022-12-25T05:21:23.350Z,101223.34
2022-12-25T05:24:06.968Z,101402.19
2022-12-25T05:27:07.532Z,101207.41
2022-12-25T05:29:48.376Z,101206.50
2022-12-25T05:32:56.341Z,101404.16
2022-12-25T05:35:31.861Z,101234.19
2022-12-25T05:38:17.873Z,101393.53
2022-12-25T05:40:58.174Z,101342.53
2022-12-25T05:44:07.940Z,101282.63
2022-12-25T05:46:46.093Z,101174.22
2022-12-25T05:49:19.949Z,101228.94
2022-12-25T05:54:49.256Z,101371.53
2022-12-25T05:57:43.050Z,101367.78
2022-12-25T06:00:21.815Z,101198.91
2022-12-25T06:02:54.441Z,101223.94
2022-12-25T06:05:23.282Z,101291.16
2022-12-25T06:07:55.140Z,101286.72
2022-12-25T06:10:24.203Z,101350.78
2022-12-25T06:13:02.399Z,101353.25
2022-12-25T06:15:40.093Z,101369.94
2022-12-25T06:23:58.536Z,101136.44
2022-12-25T06:26:44.393Z,101292.16
2022-12-25T06:29:21.079Z,101144.28
2022-12-25T06:32:07.401Z,101145.25
2022-12-25T06:34:37.292Z,101284.94
2022-12-25T06:40:07.307Z,101155.09
2022-12-25T06:45:19.052Z,101147.41
2022-12-25T06:47:51.372Z,101137.25
2022-12-25T06:53:17.798Z,101241.03
2022-12-25T06:55:52.769Z,101309.97
2022-12-25T06:58:28.447Z,101134.91
2022-12-25T07:03:51.712Z,101233.28
2022-12-25T07:06:18.755Z,101147.03
2022-12-25T07:08:51.293Z,101235.13
2022-12-25T07:11:30.973Z,101241.56
2022-12-25T07:14:05.808Z,101271.31
2022-12-25T07:16:32.876Z,101149.53
2022-12-25T07:19:03.892Z,101284.72
2022-12-25T07:21:36.581Z,101315.69
2022-12-25T07:24:08.873Z,101234.47
2022-12-25T07:26:44.800Z,101316.00
2022-12-25T07:29:16.561Z,101117.31
2022-12-25T07:31:49.669Z,101172.97
2022-12-25T07:34:26.078Z,101314.69
2022-12-25T07:37:01.140Z,101260.53
2022-12-25T07:39:39.965Z,101198.25
2022-12-25T07:42:25.024Z,101150.84
2022-12-25T07:45:07.757Z,101312.25
2022-12-25T07:48:02.699Z,101331.19
2022-12-25T07:50:40.181Z,101173.94
2022-12-25T07:53:18.943Z,101285.94
2022-12-25T07:56:02.409Z,101152.63
2022-12-25T07:58:42.103Z,101341.75
2022-12-25T08:01:26.707Z,101166.19
2022-12-25T08:04:10.359Z,101181.84
2022-12-25T08:06:43.724Z,101357.44
2022-12-25T08:09:19.383Z,101159.97
2022-12-25T08:11:53.838Z,101152.00
2022-12-25T08:14:27.948Z,101143.66
2022-12-25T08:17:07.414Z,101346.13
2022-12-25T08:19:39.194Z,101355.88
2022-12-25T08:22:15.403Z,101360.44
2022-12-25T08:24:55.138Z,101364.78
2022-12-25T08:27:25.077Z,101246.75
2022-12-25T08:29:57.825Z,101137.13
2022-12-25T08:32:39.807Z,101267.63
2022-12-25T08:35:11.716Z,101354.97
2022-12-25T08:37:42.739Z,101189.38
2022-12-25T08:40:13.138Z,101154.28
2022-12-25T08:42:47.759Z,101323.50
2022-12-25T08:45:34.749Z,101150.75
2022-12-25T08:48:04.971Z,101353.16
2022-12-25T08:50:37.017Z,101164.72
2022-12-25T08:53:10.912Z,101188.41
2022-12-25T08:55:47.830Z,101300.53
2022-12-25T08:58:19.879Z,101230.59
2022-12-25T09:00:49.917Z,101337.09
2022-12-25T09:03:27.256Z,101258.25
2022-12-25T09:09:16.507Z,101306.38
2022-12-25T09:11:50.973Z,101128.38
2022-12-25T09:14:19.480Z,101313.72
2022-12-25T09:16:49.208Z,101139.72
2022-12-25T09:19:31.516Z,101317.97
2022-12-25T09:21:58.281Z,101278.91
2022-12-25T09:24:26.647Z,101240.53
2022-12-25T09:26:55.431Z,101350.00
2022-12-25T09:33:26.514Z,101158.44
2022-12-25T09:40:58.193Z,101344.59
2022-12-25T10:10:44.244Z,101144.66
2022-12-25T10:19:56.120Z,101284.59
2022-12-25T10:22:49.593Z,101191.72
2022-12-25T10:25:55.277Z,101106.66
2022-12-25T10:28:29.783Z,101221.59
2022-12-25T10:31:03.620Z,101123.94
2022-12-25T10:33:31.101Z,101077.78
2022-12-25T10:35:58.286Z,101130.72
2022-12-25T10:38:25.209Z,101178.66
2022-12-25T10:41:08.668Z,101164.44
2022-12-25T10:43:42.300Z,101127.72
2022-12-25T10:46:20.736Z,101149.78
2022-12-25T10:48:56.427Z,101211.44
2022-12-25T10:54:32.763Z,101133.44
2022-12-25T10:57:15.121Z,101099.81
2022-12-25T11:00:25.013Z,101107.38
2022-12-25T11:03:32.212Z,101099.16
2022-12-25T11:06:35.422Z,101247.41
2022-12-25T11:16:29.517Z,101129.88
2022-12-25T11:29:38.566Z,101143.94
2022-12-25T11:36:09.991Z,101196.13
2022-12-25T12:00:01.575Z,101178.47
2022-12-25T12:02:35.233Z,101051.34
2022-12-25T12:05:33.273Z,100981.91
2022-12-25T12:08:17.345Z,101080.53
2022-12-25T12:14:31.999Z,101186.63
2022-12-25T12:17:16.314Z,101135.84
2022-12-25T12:19:53.203Z,100997.38
2022-12-25T12:25:54.705Z,101044.44
2022-12-25T12:29:02.027Z,100974.16
2022-12-25T12:32:13.131Z,101026.13
2022-12-25T12:35:04.192Z,101135.09
2022-12-25T12:46:46.142Z,100989.00
2022-12-25T12:49:37.032Z,100968.38
2022-12-25T12:52:44.752Z,100955.47
2022-12-25T13:02:05.804Z,100942.56
2022-12-25T13:14:16.604Z,100903.06
2022-12-25T13:16:54.803Z,101100.25
2022-12-25T13:19:53.153Z,100906.59
2022-12-25T13:22:39.666Z,100923.69
2022-12-25T13:25:24.200Z,100912.44
2022-12-25T13:28:00.585Z,101014.91
2022-12-25T13:30:43.178Z,101071.47
2022-12-25T13:33:18.709Z,100920.09
2022-12-25T13:36:02.208Z,101005.13
2022-12-25T13:38:31.835Z,100877.81
2022-12-25T13:41:04.277Z,100911.84
2022-12-25T13:43:31.171Z,100932.50
2022-12-25T13:45:58.055Z,101050.13
2022-12-25T13:48:25.640Z,100995.22
2022-12-25T13:50:58.100Z,101047.13
2022-12-25T13:53:35.547Z,100950.03
2022-12-25T13:56:16.843Z,100976.66
2022-12-25T13:58:53.482Z,100999.16
2022-12-25T14:01:38.476Z,100849.47
2022-12-25T14:04:20.628Z,101038.88
2022-12-25T14:10:16.416Z,100926.53
2022-12-25T14:12:49.527Z,100929.28
2022-12-25T14:15:30.998Z,100972.00
2022-12-25T14:18:05.953Z,101009.75
2022-12-25T14:20:58.381Z,100887.69
2022-12-25T14:23:41.846Z,100975.22
2022-12-25T14:26:19.231Z,101045.78
2022-12-25T14:28:50.477Z,100925.38
2022-12-25T14:31:20.774Z,101076.53
2022-12-25T14:33:51.436Z,100978.50
2022-12-25T14:36:18.989Z,100993.16
2022-12-25T14:38:57.443Z,100951.38
2022-12-25T14:41:29.161Z,100952.69
2022-12-25T14:43:57.461Z,100995.31
2022-12-25T14:46:26.442Z,100849.78
2022-12-25T14:49:00.177Z,100843.16
2022-12-25T14:51:29.563Z,100950.22
2022-12-25T14:53:58.210Z,100884.41
2022-12-25T14:56:29.483Z,101027.28
2022-12-25T14:58:59.984Z,100980.94
2022-12-25T15:01:30.303Z,100945.13
2022-12-25T15:04:08.822Z,100863.22
2022-12-25T15:06:40.572Z,100995.31
2022-12-25T15:09:15.865Z,101031.38
2022-12-25T15:11:42.637Z,100857.97
2022-12-25T15:14:12.073Z,101013.25
2022-12-25T15:16:41.845Z,100853.72
2022-12-25T15:19:13.193Z,100864.50
2022-12-25T15:21:40.349Z,100973.88
2022-12-25T15:24:11.430Z,100868.06
2022-12-25T15:26:38.229Z,100871.31
2022-12-25T15:29:05.350Z,100873.13
2022-12-25T15:31:48.408Z,101021.03
2022-12-25T15:34:28.219Z,100853.16
2022-12-25T15:36:57.428Z,101058.75
2022-12-25T15:39:24.343Z,100945.91
2022-12-25T15:41:52.881Z,100896.78
2022-12-25T15:44:20.722Z,100858.66
2022-12-25T15:46:51.911Z,100927.16
2022-12-25T15:49:19.009Z,100874.88
2022-12-25T15:51:46.921Z,100921.00
2022-12-25T15:54:14.753Z,100953.50
2022-12-25T15:56:45.493Z,101041.91
2022-12-25T15:59:13.981Z,101070.66
2022-12-25T16:01:44.546Z,101078.75
2022-12-25T16:04:12.684Z,101085.22
2022-12-25T16:06:42.419Z,101071.72
2022-12-25T16:09:11.312Z,101075.25
2022-12-25T16:11:38.283Z,101053.34
2022-12-25T16:14:05.947Z,101051.16
2022-12-25T16:16:54.991Z,100983.34
2022-12-25T16:19:25.794Z,101027.78
2022-12-25T16:22:17.769Z,101073.31
2022-12-25T16:24:57.864Z,100920.31
2022-12-25T16:27:29.202Z,101068.19
2022-12-25T16:30:01.945Z,101100.34
2022-12-25T16:32:31.394Z,101039.63
2022-12-25T16:35:04.827Z,101030.97
2022-12-25T16:37:31.698Z,100924.56
2022-12-25T16:40:00.775Z,101013.53
2022-12-25T16:42:27.725Z,100906.69
2022-12-25T16:44:54.504Z,100998.34
2022-12-25T16:47:21.655Z,100852.66
2022-12-25T16:49:50.423Z,100846.66
2022-12-25T16:52:19.581Z,100896.00
2022-12-25T16:54:48.678Z,100844.28
2022-12-25T16:57:18.153Z,100873.72
2022-12-25T16:59:50.907Z,100858.03
2022-12-25T17:02:23.045Z,101038.22
2022-12-25T17:04:54.921Z,100876.75
2022-12-25T17:07:23.593Z,100862.94
2022-12-25T17:09:50.427Z,100884.13
2022-12-25T17:12:19.143Z,101001.28
2022-12-25T17:14:51.087Z,100898.22
2022-12-25T17:17:17.879Z,100849.47
2022-12-25T17:19:46.839Z,100867.97
2022-12-25T17:22:14.041Z,100940.16
2022-12-25T17:24:42.316Z,101032.81
2022-12-25T17:27:13.876Z,101004.09
2022-12-25T17:29:43.711Z,101011.78
2022-12-25T17:32:12.962Z,101006.59
2022-12-25T17:34:42.467Z,100842.63
2022-12-25T17:37:15.221Z,100872.38
2022-12-25T17:39:44.002Z,100854.78
2022-12-25T17:42:10.811Z,101000.44
2022-12-25T17:44:46.834Z,100917.75
2022-12-25T17:47:13.776Z,100958.19
2022-12-25T17:49:43.562Z,100959.50
2022-12-25T17:52:10.338Z,100839.84
2022-12-25T17:54:37.399Z,101004.69
2022-12-25T17:57:05.954Z,101004.72
2022-12-25T17:59:32.937Z,100978.88
2022-12-25T18:02:02.565Z,100804.88
2022-12-25T18:04:34.365Z,100969.13
2022-12-25T18:07:03.889Z,100829.16
2022-12-25T18:09:30.618Z,100842.25
2022-12-25T18:11:57.664Z,100960.75
2022-12-25T18:14:26.002Z,101000.25
2022-12-25T18:16:54.837Z,100879.91
2022-12-25T18:19:21.752Z,100884.03
2022-12-25T18:21:51.691Z,100955.03
2022-12-25T18:24:20.768Z,100955.28
2022-12-25T18:26:50.805Z,100795.81
2022-12-25T18:29:20.271Z,100972.13
2022-12-25T18:31:53.507Z,100955.66
2022-12-25T18:34:23.398Z,100903.31
2022-12-25T18:36:59.417Z,100819.72
2022-12-25T18:39:33.540Z,100814.41
2022-12-25T18:42:16.939Z,100842.84
2022-12-25T18:44:47.803Z,100991.75
2022-12-25T18:47:22.399Z,100991.19
2022-12-25T18:49:52.054Z,100990.38
2022-12-25T18:52:48.000Z,100956.09
2022-12-25T18:55:16.654Z,100968.44
2022-12-25T18:57:46.373Z,100794.06
2022-12-25T19:00:16.148Z,100947.19
2022-12-25T19:02:54.424Z,100944.22
2022-12-25T19:05:24.415Z,100942.38
2022-12-25T19:08:08.400Z,100779.22
2022-12-25T19:10:39.707Z,100783.84
2022-12-25T19:13:07.585Z,100904.16
2022-12-25T19:15:43.664Z,100795.69
2022-12-25T19:18:14.780Z,100774.94
2022-12-25T19:20:42.917Z,100927.78
2022-12-25T19:23:18.640Z,100770.22
2022-12-25T19:25:50.023Z,100905.22
2022-12-25T19:28:25.170Z,100974.09
2022-12-25T19:30:55.262Z,100900.91
2022-12-25T19:33:30.456Z,100948.00
2022-12-25T19:36:21.502Z,100780.84
2022-12-25T19:39:05.280Z,100980.59
2022-12-25T19:41:49.901Z,100909.50
2022-12-25T19:44:31.768Z,100953.38
2022-12-25T19:47:10.420Z,100966.25
2022-12-25T19:50:03.699Z,100977.34
2022-12-25T19:52:31.739Z,100933.94
2022-12-25T19:55:12.939Z,100979.25
2022-12-25T19:57:45.095Z,100927.97
2022-12-25T20:00:12.613Z,100932.00
2022-12-25T20:02:40.017Z,100784.00
2022-12-25T20:05:22.423Z,100875.78
2022-12-25T20:07:56.552Z,100948.16
2022-12-25T20:10:33.305Z,100979.69
2022-12-25T20:13:06.624Z,100849.94
2022-12-25T20:15:34.224Z,100883.00
2022-12-25T20:18:16.484Z,100975.56
2022-12-25T20:21:00.028Z,100834.81
2022-12-25T20:23:50.685Z,100986.63
2022-12-25T20:26:19.550Z,100848.84
2022-12-25T20:28:46.608Z,100830.44
2022-12-25T20:31:18.554Z,100978.50
2022-12-25T20:33:48.654Z,100989.91
2022-12-25T20:36:16.897Z,100996.94
2022-12-25T20:38:43.796Z,100935.88
2022-12-25T20:41:29.648Z,100989.09
2022-12-25T20:44:02.613Z,100986.63
2022-12-25T20:46:29.932Z,100985.00
2022-12-25T20:48:57.060Z,100986.88
2022-12-25T20:51:26.128Z,100979.06
2022-12-25T20:53:53.903Z,100974.75
2022-12-25T20:56:23.875Z,100975.75
2022-12-25T20:58:53.662Z,100989.28
2022-12-25T21:01:22.314Z,100991.75
2022-12-25T21:03:52.014Z,100917.03
2022-12-25T21:06:19.836Z,100958.78
2022-12-25T21:08:50.379Z,100913.34
2022-12-25T21:11:19.367Z,100790.31
2022-12-25T21:13:50.443Z,100811.34
2022-12-25T21:16:20.178Z,100915.56
2022-12-25T21:18:48.810Z,100790.25
2022-12-25T21:21:17.904Z,100840.25
2022-12-25T21:23:46.996Z,100947.63
2022-12-25T21:26:17.441Z,100809.63
2022-12-25T21:28:57.668Z,100975.84
2022-12-25T21:31:32.121Z,100897.13
2022-12-25T21:34:05.234Z,100938.34
2022-12-25T21:36:38.751Z,100788.66
2022-12-25T21:39:09.299Z,100788.66
2022-12-25T21:42:00.580Z,100873.75
2022-12-25T21:44:27.558Z,100893.28
2022-12-25T21:46:54.581Z,100995.75
2022-12-25T21:49:21.628Z,100954.75
2022-12-25T21:51:48.454Z,100851.44
2022-12-25T21:54:16.087Z,100846.22
2022-12-25T21:56:45.794Z,100814.00
2022-12-25T21:59:16.749Z,100792.59
2022-12-25T22:01:44.268Z,100994.34
2022-12-25T22:04:12.681Z,100952.78
2022-12-25T22:06:41.825Z,100903.19
2022-12-25T22:09:09.778Z,100886.91
2022-12-25T22:11:36.785Z,100933.56
2022-12-25T22:14:06.094Z,100965.53
2022-12-25T22:16:34.364Z,100885.50
2022-12-25T22:19:04.284Z,101004.06
2022-12-25T22:21:33.895Z,100882.16
2022-12-25T22:24:00.942Z,100832.84
2022-12-25T22:26:37.221Z,100964.69
2022-12-25T22:29:04.239Z,100851.94
2022-12-25T22:31:32.947Z,100820.84
2022-12-25T22:34:04.308Z,100814.06
2022-12-25T22:36:31.526Z,101014.44
2022-12-25T22:39:01.579Z,100883.53
2022-12-25T22:41:33.424Z,100935.78
2022-12-25T22:44:16.907Z,100920.13
2022-12-25T22:46:50.718Z,100882.88
2022-12-25T22:49:19.671Z,100981.22
2022-12-25T22:52:00.874Z,100811.06
2022-12-25T22:54:30.374Z,100929.94
2022-12-25T22:56:58.281Z,100913.41
2022-12-25T22:59:31.764Z,100805.09
2022-12-25T23:02:02.718Z,100929.47
2022-12-25T23:04:34.067Z,100902.47
2022-12-25T23:07:05.125Z,100894.59
2022-12-25T23:09:34.812Z,100828.34
2022-12-25T23:12:01.865Z,100963.16
2022-12-25T23:14:28.680Z,100837.28
2022-12-25T23:16:56.731Z,100958.69
2022-12-25T23:19:24.233Z,100882.16
2022-12-25T23:21:53.025Z,100808.31
2022-12-25T23:24:21.678Z,100821.84
2022-12-25T23:26:52.117Z,100832.72
2022-12-25T23:29:18.983Z,100982.59
2022-12-25T23:31:45.729Z,100990.44
2022-12-25T23:34:13.462Z,100901.72
2022-12-25T23:36:40.209Z,100823.81
2022-12-25T23:39:12.462Z,100944.03
2022-12-25T23:41:42.179Z,100970.75
2022-12-25T23:44:09.666Z,100800.31
2022-12-25T23:46:42.118Z,100765.44
2022-12-25T23:49:24.658Z,100976.69
2022-12-25T23:51:52.036Z,100754.06
2022-12-25T23:54:27.549Z,100928.16
2022-12-25T23:56:58.490Z,100871.78
2022-12-25T23:59:31.809Z,100812.31
